sensor_id;sensor_type;location;lat;lon;timestamp;pressure;altitude;pressure_sealevel;temperature;humidity
33949;BME280;20229;49.856;19.030;2023-02-02T00:01:29;100860.47;;;2.77;92.00
33949;BME280;20229;49.856;19.030;2023-02-02T00:06:50;100849.03;;;2.66;92.58
33949;BME280;20229;49.856;19.030;2023-02-02T00:11:55;100842.71;;;2.67;92.15
33949;BME280;20229;49.856;19.030;2023-02-02T00:17:14;100855.48;;;2.59;92.35
33949;BME280;20229;49.856;19.030;2023-02-02T00:22:17;100850.96;;;2.59;92.65
33949;BME280;20229;49.856;19.030;2023-02-02T00:27:40;100852.90;;;2.53;93.06
33949;BME280;20229;49.856;19.030;2023-02-02T00:32:43;100856.48;;;2.53;93.02
33949;BME280;20229;49.856;19.030;2023-02-02T00:38:05;100849.43;;;2.48;93.52
33949;BME280;20229;49.856;19.030;2023-02-02T00:43:08;100853.95;;;2.46;93.49
33949;BME280;20229;49.856;19.030;2023-02-02T00:48:31;100856.77;;;2.39;93.75
33949;BME280;20229;49.856;19.030;2023-02-02T00:53:34;100859.46;;;2.39;93.72
33949;BME280;20229;49.856;19.030;2023-02-02T00:58:57;100869.52;;;2.31;93.94
33949;BME280;20229;49.856;19.030;2023-02-02T01:04:00;100865.05;;;2.30;94.14
33949;BME280;20229;49.856;19.030;2023-02-02T01:09:22;100871.42;;;2.26;94.30
33949;BME280;20229;49.856;19.030;2023-02-02T01:14:26;100870.55;;;2.24;94.51
33949;BME280;20229;49.856;19.030;2023-02-02T01:19:48;100870.66;;;2.18;94.80
33949;BME280;20229;49.856;19.030;2023-02-02T01:24:51;100880.54;;;2.19;94.76
33949;BME280;20229;49.856;19.030;2023-02-02T01:30:14;100886.88;;;2.15;95.17
33949;BME280;20229;49.856;19.030;2023-02-02T01:35:17;100885.05;;;2.17;95.30
33949;BME280;20229;49.856;19.030;2023-02-02T01:45:56;100884.17;;;2.17;95.31
33949;BME280;20229;49.856;19.030;2023-02-02T01:51:08;100889.62;;;2.13;95.33
33949;BME280;20229;49.856;19.030;2023-02-02T01:56:18;100898.52;;;2.17;95.89
33949;BME280;20229;49.856;19.030;2023-02-02T02:01:31;100902.20;;;2.11;95.80
33949;BME280;20229;49.856;19.030;2023-02-02T02:06:34;100903.09;;;2.12;96.36
33949;BME280;20229;49.856;19.030;2023-02-02T02:11:56;100906.70;;;2.11;96.17
33949;BME280;20229;49.856;19.030;2023-02-02T02:22:26;100922.81;;;2.14;96.21
33949;BME280;20229;49.856;19.030;2023-02-02T02:27:59;100917.37;;;2.17;96.32
33949;BME280;20229;49.856;19.030;2023-02-02T02:38:26;100919.10;;;2.21;95.94
33949;BME280;20229;49.856;19.030;2023-02-02T02:43:54;100926.33;;;2.19;95.74
33949;BME280;20229;49.856;19.030;2023-02-02T02:48:55;100928.05;;;2.23;95.94
33949;BME280;20229;49.856;19.030;2023-02-02T02:54:00;100929.86;;;2.23;95.73
33949;BME280;20229;49.856;19.030;2023-02-02T03:09:41;100940.54;;;2.26;95.60
33949;BME280;20229;49.856;19.030;2023-02-02T03:14:48;100933.39;;;2.25;95.18
33949;BME280;20229;49.856;19.030;2023-02-02T03:19:52;100936.91;;;2.28;95.69
33949;BME280;20229;49.856;19.030;2023-02-02T03:24:56;100951.30;;;2.27;95.53
33949;BME280;20229;49.856;19.030;2023-02-02T03:30:01;100956.59;;;2.33;95.60
33949;BME280;20229;49.856;19.030;2023-02-02T03:35:22;100956.60;;;2.32;95.29
33949;BME280;20229;49.856;19.030;2023-02-02T03:40:26;100951.10;;;2.38;94.96
33949;BME280;20229;49.856;19.030;2023-02-02T03:45:47;100963.70;;;2.36;95.18
33949;BME280;20229;49.856;19.030;2023-02-02T03:50:55;100955.55;;;2.41;94.54
33949;BME280;20229;49.856;19.030;2023-02-02T03:56:13;100954.69;;;2.38;94.57
33949;BME280;20229;49.856;19.030;2023-02-02T04:01:31;100956.40;;;2.43;94.83
33949;BME280;20229;49.856;19.030;2023-02-02T04:06:39;100942.93;;;2.43;94.64
33949;BME280;20229;49.856;19.030;2023-02-02T04:11:42;100938.35;;;2.48;94.25
33949;BME280;20229;49.856;19.030;2023-02-02T04:17:04;100939.30;;;2.45;93.94
33949;BME280;20229;49.856;19.030;2023-02-02T04:22:08;100943.75;;;2.48;94.11
33949;BME280;20229;49.856;19.030;2023-02-02T04:27:30;100941.94;;;2.47;94.06
33949;BME280;20229;49.856;19.030;2023-02-02T04:32:37;100929.29;;;2.50;94.34
33949;BME280;20229;49.856;19.030;2023-02-02T04:37:56;100941.93;;;2.48;94.01
33949;BME280;20229;49.856;19.030;2023-02-02T04:43:02;100931.09;;;2.51;94.03
33949;BME280;20229;49.856;19.030;2023-02-02T04:48:21;100940.95;;;2.51;93.70
33949;BME280;20229;49.856;19.030;2023-02-02T04:53:25;100924.73;;;2.54;93.54
33949;BME280;20229;49.856;19.030;2023-02-02T04:58:47;100929.28;;;2.52;93.34
33949;BME280;20229;49.856;19.030;2023-02-02T05:03:51;100914.82;;;2.56;92.81
33949;BME280;20229;49.856;19.030;2023-02-02T05:09:13;100927.43;;;2.54;93.14
33949;BME280;20229;49.856;19.030;2023-02-02T05:14:17;100930.05;;;2.58;92.67
33949;BME280;20229;49.856;19.030;2023-02-02T05:19:38;100917.48;;;2.57;92.54
33949;BME280;20229;49.856;19.030;2023-02-02T05:24:42;100930.00;;;2.61;92.37
33949;BME280;20229;49.856;19.030;2023-02-02T05:30:05;100934.41;;;2.64;92.00
33949;BME280;20229;49.856;19.030;2023-02-02T05:35:09;100934.36;;;2.67;91.48
33949;BME280;20229;49.856;19.030;2023-02-02T05:40:30;100934.41;;;2.66;91.47
33949;BME280;20229;49.856;19.030;2023-02-02T05:45:34;100940.62;;;2.69;90.90
33949;BME280;20229;49.856;19.030;2023-02-02T05:56:07;100928.84;;;2.73;90.54
33949;BME280;20229;49.856;19.030;2023-02-02T06:01:21;100931.55;;;2.73;90.22
33949;BME280;20229;49.856;19.030;2023-02-02T06:06:26;100912.61;;;2.76;90.18
33949;BME280;20229;49.856;19.030;2023-02-02T06:11:46;100929.73;;;2.74;90.00
33949;BME280;20229;49.856;19.030;2023-02-02T06:16:50;100937.77;;;2.77;90.01
33949;BME280;20229;49.856;19.030;2023-02-02T06:22:12;100944.96;;;2.76;89.89
33949;BME280;20229;49.856;19.030;2023-02-02T06:27:16;100943.04;;;2.81;89.62
33949;BME280;20229;49.856;19.030;2023-02-02T06:32:41;100940.39;;;2.80;89.45
33949;BME280;20229;49.856;19.030;2023-02-02T06:37:45;100921.41;;;2.84;89.36
33949;BME280;20229;49.856;19.030;2023-02-02T06:43:03;100932.20;;;2.84;88.98
33949;BME280;20229;49.856;19.030;2023-02-02T06:48:07;100920.35;;;2.92;88.60
33949;BME280;20229;49.856;19.030;2023-02-02T06:53:29;100927.52;;;2.93;88.68
33949;BME280;20229;49.856;19.030;2023-02-02T06:58:33;100936.31;;;3.02;88.19
33949;BME280;20229;49.856;19.030;2023-02-02T07:03:55;100953.31;;;3.06;87.59
33949;BME280;20229;49.856;19.030;2023-02-02T07:08:59;100967.51;;;3.14;87.15
33949;BME280;20229;49.856;19.030;2023-02-02T07:14:20;100967.62;;;3.09;88.29
33949;BME280;20229;49.856;19.030;2023-02-02T07:19:23;100970.38;;;3.06;89.13
33949;BME280;20229;49.856;19.030;2023-02-02T07:24:46;100969.61;;;3.00;89.55
33949;BME280;20229;49.856;19.030;2023-02-02T07:29:49;100964.22;;;3.00;89.60
33949;BME280;20229;49.856;19.030;2023-02-02T07:35:11;100968.79;;;2.96;90.28
33949;BME280;20229;49.856;19.030;2023-02-02T07:40:14;100955.07;;;3.07;90.11
33949;BME280;20229;49.856;19.030;2023-02-02T07:45:37;100960.53;;;3.04;90.30
33949;BME280;20229;49.856;19.030;2023-02-02T07:50:41;100963.16;;;3.08;90.19
33949;BME280;20229;49.856;19.030;2023-02-02T07:56:10;100963.98;;;3.12;90.19
33949;BME280;20229;49.856;19.030;2023-02-02T08:01:15;100967.38;;;3.20;89.53
33949;BME280;20229;49.856;19.030;2023-02-02T08:06:36;100965.68;;;3.16;89.67
33949;BME280;20229;49.856;19.030;2023-02-02T08:11:40;100958.45;;;3.18;89.78
33949;BME280;20229;49.856;19.030;2023-02-02T08:16:55;100962.11;;;3.14;89.74
33949;BME280;20229;49.856;19.030;2023-02-02T08:21:59;100960.28;;;3.16;89.59
33949;BME280;20229;49.856;19.030;2023-02-02T08:27:23;100955.75;;;3.18;89.52
33949;BME280;20229;49.856;19.030;2023-02-02T08:32:26;100944.60;;;3.33;89.46
33949;BME280;20229;49.856;19.030;2023-02-02T08:37:48;100950.02;;;3.32;88.63
33949;BME280;20229;49.856;19.030;2023-02-02T08:42:52;100953.52;;;3.37;87.88
33949;BME280;20229;49.856;19.030;2023-02-02T08:48:11;100972.42;;;3.35;86.86
33949;BME280;20229;49.856;19.030;2023-02-02T08:53:19;100968.59;;;3.46;87.17
33949;BME280;20229;49.856;19.030;2023-02-02T08:58:43;100966.70;;;3.51;86.29
33949;BME280;20229;49.856;19.030;2023-02-02T09:03:47;100955.77;;;3.57;86.82
33949;BME280;20229;49.856;19.030;2023-02-02T09:09:04;100955.52;;;3.66;86.21
33949;BME280;20229;49.856;19.030;2023-02-02T09:14:09;100961.52;;;3.79;84.95
33949;BME280;20229;49.856;19.030;2023-02-02T09:19:28;100969.52;;;3.83;85.12
33949;BME280;20229;49.856;19.030;2023-02-02T09:24:31;100971.12;;;3.91;85.08
33949;BME280;20229;49.856;19.030;2023-02-02T09:29:53;100982.05;;;3.86;85.47
33949;BME280;20229;49.856;19.030;2023-02-02T09:34:56;100976.59;;;3.89;85.19
33949;BME280;20229;49.856;19.030;2023-02-02T09:40:19;100984.08;;;3.76;85.33
33949;BME280;20229;49.856;19.030;2023-02-02T09:45:37;101002.67;;;3.89;85.85
33949;BME280;20229;49.856;19.030;2023-02-02T09:50:57;101026.22;;;3.83;86.16
33949;BME280;20229;49.856;19.030;2023-02-02T09:55:59;101032.55;;;3.82;86.49
33949;BME280;20229;49.856;19.030;2023-02-02T10:01:17;101028.29;;;3.72;86.99
33949;BME280;20229;49.856;19.030;2023-02-02T10:16:56;101015.04;;;3.62;88.45
33949;BME280;20229;49.856;19.030;2023-02-02T10:22:17;101015.86;;;3.64;88.51
33949;BME280;20229;49.856;19.030;2023-02-02T10:27:34;101036.50;;;3.68;88.33
33949;BME280;20229;49.856;19.030;2023-02-02T10:32:46;101048.95;;;3.73;87.93
33949;BME280;20229;49.856;19.030;2023-02-02T10:48:42;101077.46;;;3.87;88.38
33949;BME280;20229;49.856;19.030;2023-02-02T10:53:51;101078.35;;;3.87;88.65
33949;BME280;20229;49.856;19.030;2023-02-02T10:59:05;101090.85;;;3.91;88.99
33949;BME280;20229;49.856;19.030;2023-02-02T11:04:12;101089.97;;;3.91;88.89
33949;BME280;20229;49.856;19.030;2023-02-02T11:09:34;101077.16;;;3.99;89.00
33949;BME280;20229;49.856;19.030;2023-02-02T11:14:46;101087.91;;;4.02;89.35
33949;BME280;20229;49.856;19.030;2023-02-02T11:19:52;101114.77;;;4.08;89.46
33949;BME280;20229;49.856;19.030;2023-02-02T11:25:01;101110.70;;;4.27;90.04
33949;BME280;20229;49.856;19.030;2023-02-02T11:30:20;101119.30;;;4.45;89.20
33949;BME280;20229;49.856;19.030;2023-02-02T11:35:21;101124.95;;;4.36;89.25
33949;BME280;20229;49.856;19.030;2023-02-02T11:40:33;101126.78;;;4.34;90.04
33949;BME280;20229;49.856;19.030;2023-02-02T11:45:40;101120.97;;;4.50;90.14
33949;BME280;20229;49.856;19.030;2023-02-02T11:50:50;101121.16;;;4.78;89.59
33949;BME280;20229;49.856;19.030;2023-02-02T11:55:55;101130.82;;;4.89;89.75
33949;BME280;20229;49.856;19.030;2023-02-02T12:01:01;101127.55;;;5.09;89.36
33949;BME280;20229;49.856;19.030;2023-02-02T12:06:25;101127.55;;;5.09;88.77
33949;BME280;20229;49.856;19.030;2023-02-02T12:11:40;101143.40;;;5.24;89.03
33949;BME280;20229;49.856;19.030;2023-02-02T12:16:58;101149.26;;;5.40;88.13
33949;BME280;20229;49.856;19.030;2023-02-02T12:43:22;101178.95;;;5.10;86.74
33949;BME280;20229;49.856;19.030;2023-02-02T12:48:43;101186.05;;;5.14;86.49
33949;BME280;20229;49.856;19.030;2023-02-02T13:04:30;101193.57;;;5.03;85.55
33949;BME280;20229;49.856;19.030;2023-02-02T13:09:39;101192.88;;;4.95;84.96
33949;BME280;20229;49.856;19.030;2023-02-02T13:14:50;101197.51;;;4.90;85.11
33949;BME280;20229;49.856;19.030;2023-02-02T13:19:59;101203.16;;;4.81;85.59
33949;BME280;20229;49.856;19.030;2023-02-02T13:25:15;101231.12;;;4.79;86.70
33949;BME280;20229;49.856;19.030;2023-02-02T13:30:30;101232.05;;;4.78;87.52
33949;BME280;20229;49.856;19.030;2023-02-02T13:35:41;101248.07;;;4.88;87.84
33949;BME280;20229;49.856;19.030;2023-02-02T13:40:47;101251.75;;;4.84;87.45
33949;BME280;20229;49.856;19.030;2023-02-02T13:56:35;101275.60;;;4.66;88.12
33949;BME280;20229;49.856;19.030;2023-02-02T14:01:45;101273.90;;;4.62;88.55
33949;BME280;20229;49.856;19.030;2023-02-02T14:06:56;101288.35;;;4.61;88.89
33949;BME280;20229;49.856;19.030;2023-02-02T14:12:08;101300.18;;;4.55;89.29
33949;BME280;20229;49.856;19.030;2023-02-02T14:38:23;101334.29;;;4.19;89.94
33949;BME280;20229;49.856;19.030;2023-02-02T14:43:39;101342.45;;;4.16;90.37
33949;BME280;20229;49.856;19.030;2023-02-02T14:49:04;101345.22;;;4.13;90.40
33949;BME280;20229;49.856;19.030;2023-02-02T14:53:58;101362.47;;;4.06;90.44
33949;BME280;20229;49.856;19.030;2023-02-02T14:59:03;101373.37;;;4.03;90.20
33949;BME280;20229;49.856;19.030;2023-02-02T15:09:32;101396.01;;;3.96;90.51
33949;BME280;20229;49.856;19.030;2023-02-02T15:14:46;101412.32;;;3.90;90.50
33949;BME280;20229;49.856;19.030;2023-02-02T15:30:25;101421.59;;;3.73;90.95
33949;BME280;20229;49.856;19.030;2023-02-02T15:35:30;101436.11;;;3.68;90.94
33949;BME280;20229;49.856;19.030;2023-02-02T15:40:35;101449.65;;;3.65;91.15
33949;BME280;20229;49.856;19.030;2023-02-02T15:45:51;101455.15;;;3.58;91.20
33949;BME280;20229;49.856;19.030;2023-02-02T15:50:59;101463.36;;;3.51;91.07
33949;BME280;20229;49.856;19.030;2023-02-02T16:01:21;101508.60;;;3.33;91.25
33949;BME280;20229;49.856;19.030;2023-02-02T16:06:25;101515.07;;;3.22;91.38
33949;BME280;20229;49.856;19.030;2023-02-02T16:11:29;101525.04;;;3.15;91.53
33949;BME280;20229;49.856;19.030;2023-02-02T16:16:45;101533.23;;;3.07;92.11
33949;BME280;20229;49.856;19.030;2023-02-02T16:21:53;101532.35;;;3.04;92.35
33949;BME280;20229;49.856;19.030;2023-02-02T16:27:18;101539.66;;;2.96;92.12
33949;BME280;20229;49.856;19.030;2023-02-02T16:32:26;101552.26;;;2.95;92.51
33949;BME280;20229;49.856;19.030;2023-02-02T16:37:36;101564.02;;;2.88;92.10
33949;BME280;20229;49.856;19.030;2023-02-02T16:42:39;101574.78;;;2.90;92.50
33949;BME280;20229;49.856;19.030;2023-02-02T16:53:22;101599.99;;;2.85;92.84
33949;BME280;20229;49.856;19.030;2023-02-02T16:58:27;101613.56;;;2.79;92.88
33949;BME280;20229;49.856;19.030;2023-02-02T17:03:33;101619.81;;;2.81;92.87
33949;BME280;20229;49.856;19.030;2023-02-02T17:08:53;101639.60;;;2.79;92.91
33949;BME280;20229;49.856;19.030;2023-02-02T17:13:56;101640.53;;;2.79;93.17
33949;BME280;20229;49.856;19.030;2023-02-02T17:19:19;101640.55;;;2.75;93.32
33949;BME280;20229;49.856;19.030;2023-02-02T17:24:22;101648.64;;;2.75;92.94
33949;BME280;20229;49.856;19.030;2023-02-02T17:29:45;101665.77;;;2.68;92.70
33949;BME280;20229;49.856;19.030;2023-02-02T17:34:48;101688.30;;;2.60;92.87
33949;BME280;20229;49.856;19.030;2023-02-02T17:40:14;101717.09;;;2.58;93.19
33949;BME280;20229;49.856;19.030;2023-02-02T17:45:23;101717.03;;;2.66;93.03
33949;BME280;20229;49.856;19.030;2023-02-02T17:50:36;101735.92;;;2.63;92.38
33949;BME280;20229;49.856;19.030;2023-02-02T17:55:41;101740.47;;;2.53;92.21
33949;BME280;20229;49.856;19.030;2023-02-02T18:01:02;101737.85;;;2.44;92.48
33949;BME280;20229;49.856;19.030;2023-02-02T18:06:07;101746.86;;;2.38;92.35
33949;BME280;20229;49.856;19.030;2023-02-02T18:11:27;101772.98;;;2.27;92.73
33949;BME280;20229;49.856;19.030;2023-02-02T18:16:30;101763.94;;;2.33;92.91
33949;BME280;20229;49.856;19.030;2023-02-02T18:21:53;101787.32;;;2.29;92.71
33949;BME280;20229;49.856;19.030;2023-02-02T18:26:56;101800.77;;;2.35;92.52
33949;BME280;20229;49.856;19.030;2023-02-02T18:32:19;101820.53;;;2.37;92.41
33949;BME280;20229;49.856;19.030;2023-02-02T18:37:22;101820.52;;;2.41;91.79
33949;BME280;20229;49.856;19.030;2023-02-02T18:42:44;101841.20;;;2.37;91.88
33949;BME280;20229;49.856;19.030;2023-02-02T18:47:48;101837.59;;;2.41;91.44
33949;BME280;20229;49.856;19.030;2023-02-02T18:53:10;101847.47;;;2.36;91.53
33949;BME280;20229;49.856;19.030;2023-02-02T18:58:13;101852.87;;;2.37;91.53
33949;BME280;20229;49.856;19.030;2023-02-02T19:03:36;101865.45;;;2.34;91.50
33949;BME280;20229;49.856;19.030;2023-02-02T19:08:42;101883.40;;;2.36;90.82
33949;BME280;20229;49.856;19.030;2023-02-02T19:14:07;101883.44;;;2.33;91.01
33949;BME280;20229;49.856;19.030;2023-02-02T19:24:36;101919.34;;;2.29;91.08
33949;BME280;20229;49.856;19.030;2023-02-02T19:29:41;101930.12;;;2.32;91.03
33949;BME280;20229;49.856;19.030;2023-02-02T19:34:54;101926.55;;;2.30;91.19
33949;BME280;20229;49.856;19.030;2023-02-02T19:45:26;101963.38;;;2.24;90.78
33949;BME280;20229;49.856;19.030;2023-02-02T19:50:36;101969.67;;;2.27;90.34
33949;BME280;20229;49.856;19.030;2023-02-02T19:55:44;101989.44;;;2.23;90.48
33949;BME280;20229;49.856;19.030;2023-02-02T20:00:50;101985.81;;;2.26;90.00
33949;BME280;20229;49.856;19.030;2023-02-02T20:06:25;101998.40;;;2.22;89.73
33949;BME280;20229;49.856;19.030;2023-02-02T20:11:32;102002.91;;;2.26;89.33
33949;BME280;20229;49.856;19.030;2023-02-02T20:16:40;102008.30;;;2.17;88.22
33949;BME280;20229;49.856;19.030;2023-02-02T20:21:46;102012.77;;;2.15;87.99
33949;BME280;20229;49.856;19.030;2023-02-02T20:27:12;102014.59;;;2.10;87.52
33949;BME280;20229;49.856;19.030;2023-02-02T20:32:27;102024.47;;;2.09;86.97
33949;BME280;20229;49.856;19.030;2023-02-02T20:37:44;102041.52;;;2.04;87.71
33949;BME280;20229;49.856;19.030;2023-02-02T20:43:15;102043.34;;;2.02;86.51
33949;BME280;20229;49.856;19.030;2023-02-02T20:48:41;102048.72;;;1.96;86.90
33949;BME280;20229;49.856;19.030;2023-02-02T20:53:44;102057.67;;;1.98;86.96
33949;BME280;20229;49.856;19.030;2023-02-02T20:59:07;102066.64;;;1.90;86.74
33949;BME280;20229;49.856;19.030;2023-02-02T21:04:10;102072.05;;;1.92;86.87
33949;BME280;20229;49.856;19.030;2023-02-02T21:09:32;102080.13;;;1.84;86.27
33949;BME280;20229;49.856;19.030;2023-02-02T21:14:36;102097.17;;;1.82;86.08
33949;BME280;20229;49.856;19.030;2023-02-02T21:19:58;102095.37;;;1.78;86.20
33949;BME280;20229;49.856;19.030;2023-02-02T21:25:08;102092.66;;;1.79;86.33
33949;BME280;20229;49.856;19.030;2023-02-02T21:30:23;102104.30;;;1.69;86.25
33949;BME280;20229;49.856;19.030;2023-02-02T21:35:27;102091.73;;;1.57;86.12
33949;BME280;20229;49.856;19.030;2023-02-02T21:40:49;102100.63;;;1.39;86.05
33949;BME280;20229;49.856;19.030;2023-02-02T21:45:55;102116.76;;;1.33;85.95
33949;BME280;20229;49.856;19.030;2023-02-02T21:51:22;102129.27;;;1.21;86.29
33949;BME280;20229;49.856;19.030;2023-02-02T21:56:33;102150.77;;;1.19;86.33
33949;BME280;20229;49.856;19.030;2023-02-02T22:01:41;102157.92;;;1.14;86.49
33949;BME280;20229;49.856;19.030;2023-02-02T22:06:56;102159.72;;;1.15;86.92
33949;BME280;20229;49.856;19.030;2023-02-02T22:12:16;102162.36;;;1.09;86.25
33949;BME280;20229;49.856;19.030;2023-02-02T22:22:35;102171.25;;;0.99;86.32
33949;BME280;20229;49.856;19.030;2023-02-02T22:27:41;102182.97;;;1.04;86.18
33949;BME280;20229;49.856;19.030;2023-02-02T22:32:58;102183.86;;;1.03;86.03
33949;BME280;20229;49.856;19.030;2023-02-02T22:38:02;102189.24;;;1.03;85.63
33949;BME280;20229;49.856;19.030;2023-02-02T22:43:24;102193.70;;;0.99;85.70
33949;BME280;20229;49.856;19.030;2023-02-02T22:48:27;102197.27;;;1.00;85.52
33949;BME280;20229;49.856;19.030;2023-02-02T22:53:49;102202.61;;;0.93;85.49
33949;BME280;20229;49.856;19.030;2023-02-02T22:58:52;102197.23;;;0.95;85.69
33949;BME280;20229;49.856;19.030;2023-02-02T23:04:17;102214.20;;;0.88;85.56
33949;BME280;20229;49.856;19.030;2023-02-02T23:09:23;102230.31;;;0.85;85.46
33949;BME280;20229;49.856;19.030;2023-02-02T23:14:40;102229.38;;;0.78;85.77
33949;BME280;20229;49.856;19.030;2023-02-02T23:19:44;102229.34;;;0.77;85.38
33949;BME280;20229;49.856;19.030;2023-02-02T23:25:06;102225.71;;;0.70;85.57
33949;BME280;20229;49.856;19.030;2023-02-02T23:30:12;102227.48;;;0.65;85.45
33949;BME280;20229;49.856;19.030;2023-02-02T23:35:31;102238.09;;;0.53;85.18
33949;BME280;20229;49.856;19.030;2023-02-02T23:40:35;102241.70;;;0.53;85.60
33949;BME280;20229;49.856;19.030;2023-02-02T23:45:57;102247.95;;;0.52;85.62
33949;BME280;20229;49.856;19.030;2023-02-02T23:51:04;102254.28;;;0.59;85.47
33949;BME280;20229;49.856;19.030;2023-02-02T23:56:23;102268.65;;;0.61;85.39
